createdAt,value
2018-07-20T00:00:59.333Z,63.71
2018-07-20T00:03:29.098Z,64.22
2018-07-20T00:05:58.733Z,64.45
2018-07-20T00:08:28.168Z,64.16
2018-07-20T00:10:57.776Z,64.66
2018-07-20T00:13:27.296Z,64.37
2018-07-20T00:15:56.677Z,64.58
2018-07-20T00:18:26.394Z,64.52
2018-07-20T00:20:55.857Z,64.92
2018-07-20T00:23:25.365Z,64.90
2018-07-20T00:25:55.067Z,64.62
2018-07-20T00:28:24.492Z,64.88
2018-07-20T00:30:53.992Z,64.88
2018-07-20T00:33:25.337Z,64.83
2018-07-20T00:35:54.855Z,64.91
2018-07-20T00:38:24.568Z,64.93
2018-07-20T00:40:53.973Z,64.70
2018-07-20T00:43:23.469Z,65.29
2018-07-20T00:45:52.897Z,65.10
2018-07-20T00:48:22.296Z,65.41
2018-07-20T00:50:51.969Z,64.70
2018-07-20T00:53:21.286Z,65.06
2018-07-20T00:55:50.810Z,65.42
2018-07-20T00:58:20.535Z,65.72
2018-07-20T01:00:50.078Z,65.56
2018-07-20T01:03:19.276Z,65.47
2018-07-20T01:05:49.363Z,65.87
2018-07-20T01:08:18.699Z,65.87
2018-07-20T01:10:48.116Z,65.79
2018-07-20T01:13:17.613Z,65.96
2018-07-20T01:15:47.228Z,66.06
2018-07-20T01:18:16.692Z,66.17
2018-07-20T01:20:46.344Z,66.53
2018-07-20T01:23:15.892Z,66.03
2018-07-20T01:25:45.066Z,66.31
2018-07-20T01:28:14.821Z,66.25
2018-07-20T01:30:44.511Z,66.71
2018-07-20T01:33:13.987Z,66.76
2018-07-20T01:35:43.588Z,66.73
2018-07-20T01:38:13.458Z,66.15
2018-07-20T01:40:42.977Z,66.19
2018-07-20T01:43:12.213Z,66.49
2018-07-20T01:45:41.771Z,66.70
2018-07-20T01:48:11.278Z,66.46
2018-07-20T01:50:40.403Z,67.08
2018-07-20T01:53:10.060Z,66.52
2018-07-20T01:55:39.853Z,66.16
2018-07-20T01:58:09.242Z,66.28
2018-07-20T02:00:38.541Z,65.65
2018-07-20T02:03:08.257Z,66.10
2018-07-20T02:05:37.623Z,65.81
2018-07-20T02:08:07.200Z,65.94
2018-07-20T02:10:36.649Z,66.32
2018-07-20T02:13:05.817Z,66.54
2018-07-20T02:15:35.496Z,67.05
2018-07-20T02:18:05.582Z,66.78
2018-07-20T02:20:34.913Z,67.18
2018-07-20T02:23:04.517Z,67.20
2018-07-20T02:25:34.252Z,67.46
2018-07-20T02:28:03.592Z,67.15
2018-07-20T02:30:33.176Z,67.30
2018-07-20T02:33:02.937Z,66.98
2018-07-20T02:35:32.417Z,67.46
2018-07-20T02:38:01.845Z,67.40
2018-07-20T02:40:31.509Z,67.25
2018-07-20T02:43:01.009Z,67.41
2018-07-20T02:45:30.564Z,67.69
2018-07-20T02:47:59.943Z,67.45
2018-07-20T02:50:29.268Z,67.52
2018-07-20T02:52:58.930Z,67.48
2018-07-20T02:55:28.371Z,67.89
2018-07-20T02:57:58.000Z,67.54
2018-07-20T03:00:27.739Z,67.34
2018-07-20T03:02:57.091Z,67.97
2018-07-20T03:05:26.628Z,67.71
2018-07-20T03:07:56.073Z,67.79
2018-07-20T03:10:25.413Z,67.85
2018-07-20T03:12:55.221Z,68.34
2018-07-20T03:15:24.947Z,68.04
2018-07-20T03:17:54.594Z,67.70
2018-07-20T03:20:23.930Z,67.76
2018-07-20T03:22:53.488Z,67.72
2018-07-20T03:25:22.911Z,68.34
2018-07-20T03:27:52.151Z,67.71
2018-07-20T03:30:22.040Z,68.24
2018-07-20T03:32:52.311Z,67.91
2018-07-20T03:35:21.860Z,67.75
2018-07-20T03:37:51.370Z,67.92
2018-07-20T03:40:20.689Z,67.56
2018-07-20T03:42:50.233Z,68.22
2018-07-20T03:45:20.011Z,67.50
2018-07-20T03:47:49.291Z,67.46
2018-07-20T03:50:18.742Z,67.73
2018-07-20T03:52:48.286Z,67.20
2018-07-20T03:55:17.587Z,67.60
2018-07-20T03:57:47.107Z,67.68
2018-07-20T04:00:16.686Z,67.35
2018-07-20T04:02:46.113Z,67.63
2018-07-20T04:05:15.849Z,67.44
2018-07-20T04:07:45.399Z,67.22
2018-07-20T04:10:14.737Z,67.24
2018-07-20T04:12:44.319Z,67.13
2018-07-20T04:15:14.044Z,67.39
2018-07-20T04:17:44.627Z,67.28
2018-07-20T04:20:15.677Z,67.02
2018-07-20T04:22:45.214Z,67.05
2018-07-20T04:25:14.681Z,66.87
2018-07-20T04:27:44.100Z,66.81
2018-07-20T04:30:15.558Z,66.66
2018-07-20T04:32:45.190Z,66.33
2018-07-20T04:35:14.796Z,66.69
2018-07-20T04:37:44.001Z,66.66
2018-07-20T04:40:13.632Z,66.05
2018-07-20T04:42:43.009Z,65.77
2018-07-20T04:45:12.648Z,66.04
2018-07-20T04:47:42.228Z,66.00
2018-07-20T04:50:11.720Z,65.70
2018-07-20T04:52:41.014Z,65.02
2018-07-20T04:55:10.859Z,65.10
2018-07-20T04:57:40.527Z,64.34
2018-07-20T05:00:09.970Z,64.34
2018-07-20T05:02:39.671Z,63.84
2018-07-20T05:05:09.413Z,63.46
2018-07-20T05:07:38.999Z,63.39
2018-07-20T05:10:08.541Z,63.55
2018-07-20T05:12:38.239Z,62.81
2018-07-20T05:15:07.702Z,62.61
2018-07-20T05:17:37.406Z,62.63
2018-07-20T05:20:07.005Z,63.23
2018-07-20T05:22:36.428Z,62.96
2018-07-20T05:25:05.917Z,62.83
2018-07-20T05:27:35.567Z,63.38
2018-07-20T05:30:05.510Z,62.80
2018-07-20T05:32:34.853Z,63.06
2018-07-20T05:35:05.248Z,62.80
2018-07-20T05:37:35.047Z,62.94
2018-07-20T05:40:05.491Z,62.84
2018-07-20T05:42:35.408Z,62.89
2018-07-20T05:45:05.442Z,62.61
2018-07-20T05:47:35.120Z,63.07
2018-07-20T05:50:05.808Z,63.06
2018-07-20T05:52:35.328Z,62.85
2018-07-20T05:55:04.602Z,62.70
2018-07-20T05:57:34.280Z,62.24
2018-07-20T06:00:03.683Z,62.69
2018-07-20T06:02:33.000Z,62.33
2018-07-20T06:05:02.469Z,61.79
2018-07-20T06:07:31.746Z,62.28
2018-07-20T06:10:01.071Z,61.94
2018-07-20T06:12:30.766Z,61.70
2018-07-20T06:15:00.281Z,61.62
2018-07-20T06:17:29.749Z,61.76
2018-07-20T06:19:59.093Z,61.21
2018-07-20T06:22:28.365Z,61.57
2018-07-20T06:24:57.458Z,61.20
2018-07-20T06:27:26.682Z,61.17
2018-07-20T06:29:56.106Z,61.70
2018-07-20T06:32:25.153Z,61.79
2018-07-20T06:34:54.261Z,61.52
2018-07-20T06:37:23.681Z,61.29
2018-07-20T06:39:52.786Z,61.71
2018-07-20T06:42:22.178Z,61.58
2018-07-20T06:44:51.464Z,60.92
2018-07-20T06:47:20.547Z,60.72
2018-07-20T06:49:49.820Z,60.96
2018-07-20T06:52:19.409Z,60.90
2018-07-20T06:54:48.473Z,60.65
2018-07-20T06:57:17.502Z,60.10
2018-07-20T06:59:47.361Z,60.43
2018-07-20T07:02:16.938Z,60.05
2018-07-20T07:04:46.291Z,59.64
2018-07-20T07:07:16.080Z,59.63
2018-07-20T07:09:45.552Z,59.96
2018-07-20T07:12:15.437Z,59.49
2018-07-20T07:14:47.079Z,59.72
2018-07-20T07:17:16.757Z,58.34
2018-07-20T07:19:46.580Z,58.03
2018-07-20T07:22:17.027Z,57.79
2018-07-20T07:24:46.914Z,57.78
2018-07-20T07:27:16.980Z,57.92
2018-07-20T07:29:46.456Z,58.08
2018-07-20T07:32:16.284Z,57.80
2018-07-20T07:34:45.709Z,58.20
2018-07-20T07:37:15.315Z,58.00
2018-07-20T07:39:45.534Z,58.32
2018-07-20T07:42:15.046Z,58.11
2018-07-20T07:44:44.415Z,57.91
2018-07-20T07:47:14.045Z,56.51
2018-07-20T07:49:43.489Z,52.56
2018-07-20T07:52:13.149Z,51.66
2018-07-20T07:54:42.777Z,50.83
2018-07-20T07:57:12.221Z,50.16
2018-07-20T07:59:41.767Z,49.09
2018-07-20T08:02:11.650Z,47.74
2018-07-20T08:04:41.110Z,47.46
2018-07-20T08:07:10.799Z,47.67
2018-07-20T08:09:40.265Z,45.72
2018-07-20T08:12:09.390Z,45.35
2018-07-20T08:14:38.885Z,45.74
2018-07-20T08:17:08.305Z,47.15
2018-07-20T08:19:37.698Z,48.33
2018-07-20T08:22:07.106Z,49.68
2018-07-20T08:24:36.706Z,49.70
2018-07-20T08:27:06.126Z,49.85
2018-07-20T08:29:35.786Z,50.15
2018-07-20T08:32:05.340Z,49.98
2018-07-20T08:34:34.758Z,49.38
2018-07-20T08:37:04.426Z,49.65
2018-07-20T08:39:34.026Z,50.09
2018-07-20T08:42:03.577Z,49.77
2018-07-20T08:44:33.186Z,49.75
2018-07-20T08:47:02.869Z,49.71
2018-07-20T08:49:32.172Z,50.26
2018-07-20T08:52:01.691Z,50.06
2018-07-20T08:54:31.590Z,50.15
2018-07-20T08:57:01.149Z,50.34
2018-07-20T08:59:30.599Z,49.93
2018-07-20T09:02:00.309Z,49.92
2018-07-20T09:04:29.723Z,49.88
2018-07-20T09:06:59.468Z,50.24
2018-07-20T09:09:29.361Z,50.43
2018-07-20T09:11:58.961Z,49.80
2018-07-20T09:14:28.706Z,49.13
2018-07-20T09:16:58.387Z,49.53
2018-07-20T09:19:28.046Z,49.62
2018-07-20T09:21:57.789Z,49.13
2018-07-20T09:24:27.456Z,50.01
2018-07-20T09:26:56.928Z,50.06
2018-07-20T09:29:26.689Z,49.45
2018-07-20T09:31:56.684Z,49.22
2018-07-20T09:34:28.109Z,48.82
2018-07-20T09:36:59.205Z,49.20
2018-07-20T09:39:29.154Z,48.37
2018-07-20T09:41:58.644Z,48.71
2018-07-20T09:44:28.362Z,49.07
2018-07-20T09:46:57.918Z,49.32
2018-07-20T09:49:27.241Z,49.70
2018-07-20T09:51:57.025Z,49.46
2018-07-20T09:54:26.816Z,50.21
2018-07-20T09:56:57.411Z,49.23
2018-07-20T09:59:27.131Z,48.55
2018-07-20T10:01:56.513Z,49.01
2018-07-20T10:04:25.929Z,48.04
2018-07-20T10:06:55.810Z,47.79
2018-07-20T10:09:25.111Z,47.76
2018-07-20T10:11:54.744Z,47.63
2018-07-20T10:14:24.622Z,46.86
2018-07-20T10:16:54.126Z,46.87
2018-07-20T10:19:23.347Z,47.24
2018-07-20T10:21:53.418Z,46.67
2018-07-20T10:24:22.590Z,46.33
2018-07-20T10:26:52.159Z,46.68
2018-07-20T10:29:21.573Z,45.89
2018-07-20T10:31:51.050Z,45.86
2018-07-20T10:34:20.684Z,45.02
2018-07-20T10:36:50.204Z,44.77
2018-07-20T10:39:22.130Z,44.68
2018-07-20T10:41:52.331Z,44.45
2018-07-20T10:44:21.592Z,45.08
2018-07-20T10:46:51.127Z,44.96
2018-07-20T10:49:20.946Z,45.74
2018-07-20T10:51:50.183Z,46.91
2018-07-20T10:54:19.661Z,46.11
2018-07-20T10:56:49.172Z,46.33
2018-07-20T10:59:18.424Z,46.82
2018-07-20T11:01:47.836Z,46.23
2018-07-20T11:04:17.791Z,47.26
2018-07-20T11:06:47.190Z,47.80
2018-07-20T11:09:16.517Z,48.01
2018-07-20T11:11:46.193Z,48.68
2018-07-20T11:14:15.808Z,48.99
2018-07-20T11:16:45.273Z,49.45
2018-07-20T11:19:15.067Z,49.62
2018-07-20T11:21:44.464Z,49.43
2018-07-20T11:24:13.925Z,49.64
2018-07-20T11:26:43.695Z,49.77
2018-07-20T11:29:13.239Z,49.68
2018-07-20T11:31:42.474Z,49.26
2018-07-20T11:34:11.979Z,48.47
2018-07-20T11:36:41.735Z,47.50
2018-07-20T11:39:11.307Z,47.53
2018-07-20T11:41:40.653Z,48.63
2018-07-20T11:44:10.031Z,49.12
2018-07-20T11:46:39.313Z,48.58
2018-07-20T11:49:08.766Z,47.97
2018-07-20T11:51:38.263Z,47.62
2018-07-20T11:54:07.598Z,48.17
2018-07-20T11:56:37.299Z,46.86
2018-07-20T11:59:07.019Z,47.60
2018-07-20T12:01:36.508Z,46.49
2018-07-20T12:04:06.425Z,45.68
2018-07-20T12:06:36.128Z,44.90
2018-07-20T12:09:08.509Z,44.81
2018-07-20T12:11:38.050Z,44.49
2018-07-20T12:14:07.448Z,44.82
2018-07-20T12:16:37.157Z,44.55
2018-07-20T12:19:06.672Z,44.42
2018-07-20T12:21:36.677Z,44.09
2018-07-20T12:24:06.250Z,44.67
2018-07-20T12:26:35.773Z,45.05
2018-07-20T12:29:05.088Z,44.36
2018-07-20T12:31:34.936Z,44.69
2018-07-20T12:34:04.418Z,44.57
2018-07-20T12:36:34.151Z,43.84
2018-07-20T12:39:03.898Z,45.72
2018-07-20T12:41:33.552Z,45.22
2018-07-20T12:44:02.610Z,46.54
2018-07-20T12:46:32.194Z,47.21
2018-07-20T12:49:01.634Z,46.77
2018-07-20T12:51:30.815Z,46.69
2018-07-20T12:54:00.515Z,47.21
2018-07-20T12:56:30.187Z,48.08
2018-07-20T12:58:59.616Z,48.29
2018-07-20T13:01:29.235Z,48.88
2018-07-20T13:03:58.873Z,49.99
2018-07-20T13:06:28.364Z,50.93
2018-07-20T13:08:57.662Z,51.56
2018-07-20T13:11:27.131Z,52.62
2018-07-20T13:13:56.500Z,51.60
2018-07-20T13:16:25.956Z,50.66
2018-07-20T13:18:55.459Z,50.58
2018-07-20T13:21:24.560Z,50.66
2018-07-20T13:23:54.126Z,50.99
2018-07-20T13:26:23.756Z,52.89
2018-07-20T13:28:53.181Z,51.83
2018-07-20T13:31:22.551Z,52.73
2018-07-20T13:33:52.322Z,52.57
2018-07-20T13:36:22.042Z,51.74
2018-07-20T13:38:51.559Z,51.66
2018-07-20T13:41:21.177Z,52.06
2018-07-20T13:43:50.954Z,53.07
2018-07-20T13:46:20.737Z,52.99
2018-07-20T13:48:50.493Z,52.62
2018-07-20T13:51:20.242Z,51.77
2018-07-20T13:53:50.099Z,52.05
2018-07-20T13:56:19.713Z,52.73
2018-07-20T13:58:49.150Z,51.67
2018-07-20T14:04:12.297Z,53.77
2018-07-20T14:06:41.828Z,54.67
2018-07-20T14:09:12.025Z,53.27
2018-07-20T14:11:41.696Z,53.11
2018-07-20T14:14:11.344Z,52.32
2018-07-20T14:16:40.735Z,53.69
2018-07-20T14:19:10.605Z,52.65
2018-07-20T14:21:40.288Z,52.47
2018-07-20T14:24:09.845Z,53.19
2018-07-20T14:26:39.454Z,52.89
2018-07-20T14:29:08.655Z,53.17
2018-07-20T14:31:38.201Z,55.10
2018-07-20T14:34:07.720Z,54.43
2018-07-20T14:36:37.171Z,54.03
2018-07-20T14:39:09.846Z,54.40
2018-07-20T14:41:39.165Z,53.87
2018-07-20T14:44:08.441Z,55.10
2018-07-20T14:46:38.343Z,54.11
2018-07-20T14:49:07.764Z,54.76
2018-07-20T14:51:36.944Z,54.38
2018-07-20T14:54:06.809Z,55.05
2018-07-20T14:56:36.205Z,54.76
2018-07-20T14:59:05.885Z,54.61
2018-07-20T15:01:35.621Z,54.92
2018-07-20T15:04:04.978Z,54.27
2018-07-20T15:06:34.237Z,54.50
2018-07-20T15:09:04.178Z,54.25
2018-07-20T15:11:33.513Z,54.69
2018-07-20T15:14:02.885Z,55.41
2018-07-20T15:16:32.813Z,54.72
2018-07-20T15:19:02.227Z,55.38
2018-07-20T15:21:31.659Z,54.88
2018-07-20T15:24:01.950Z,54.49
2018-07-20T15:26:31.349Z,53.66
2018-07-20T15:29:00.754Z,55.61
2018-07-20T15:31:30.496Z,55.70
2018-07-20T15:33:59.907Z,54.52
2018-07-20T15:36:29.284Z,55.03
2018-07-20T15:38:59.092Z,55.18
2018-07-20T15:41:28.450Z,54.91
2018-07-20T15:43:57.669Z,53.98
2018-07-20T15:46:27.647Z,54.84
2018-07-20T15:48:57.072Z,55.34
2018-07-20T15:51:55.484Z,54.97
2018-07-20T15:53:56.439Z,55.37
2018-07-20T15:56:25.910Z,54.63
2018-07-20T15:58:55.544Z,54.11
2018-07-20T16:01:25.138Z,54.23
2018-07-20T16:03:54.653Z,54.48
2018-07-20T16:06:24.295Z,54.21
2018-07-20T16:08:53.689Z,53.77
2018-07-20T16:11:23.001Z,53.76
2018-07-20T16:13:52.741Z,53.77
2018-07-20T16:16:22.577Z,53.29
2018-07-20T16:18:51.870Z,53.18
2018-07-20T16:21:21.661Z,53.33
2018-07-20T16:23:51.370Z,53.11
2018-07-20T16:26:21.210Z,52.48
2018-07-20T16:28:50.667Z,52.53
2018-07-20T16:31:20.344Z,52.99
2018-07-20T16:33:50.018Z,53.76
2018-07-20T16:36:19.440Z,54.01
2018-07-20T16:38:48.907Z,54.57
2018-07-20T16:41:18.828Z,54.23
2018-07-20T16:43:48.091Z,54.04
2018-07-20T16:46:17.904Z,54.21
2018-07-20T16:48:47.652Z,53.97
2018-07-20T16:51:17.105Z,54.36
2018-07-20T16:53:46.690Z,54.41
2018-07-20T16:56:16.282Z,54.31
2018-07-20T16:58:45.718Z,54.21
2018-07-20T17:01:15.381Z,54.25
2018-07-20T17:03:45.283Z,55.10
2018-07-20T17:06:14.559Z,54.45
2018-07-20T17:08:44.210Z,55.33
2018-07-20T17:11:13.665Z,55.48
2018-07-20T17:13:42.896Z,54.89
2018-07-20T17:16:12.647Z,55.49
2018-07-20T17:18:42.511Z,55.01
2018-07-20T17:21:11.971Z,54.97
2018-07-20T17:23:41.764Z,55.20
2018-07-20T17:26:11.252Z,55.18
2018-07-20T17:28:40.773Z,55.01
2018-07-20T17:31:10.388Z,54.67
2018-07-20T17:33:39.996Z,54.53
2018-07-20T17:36:09.331Z,54.11
2018-07-20T17:38:38.868Z,54.23
2018-07-20T17:41:08.453Z,54.28
2018-07-20T17:43:38.242Z,54.25
2018-07-20T17:46:08.017Z,53.97
2018-07-20T17:48:37.725Z,54.15
2018-07-20T17:51:07.120Z,54.38
2018-07-20T17:53:36.884Z,54.67
2018-07-20T17:56:06.402Z,54.30
2018-07-20T17:58:35.888Z,55.27
2018-07-20T18:01:05.499Z,56.11
2018-07-20T18:03:34.982Z,56.23
2018-07-20T18:06:04.493Z,55.53
2018-07-20T18:08:33.866Z,55.39
2018-07-20T18:11:03.444Z,55.81
2018-07-20T18:13:33.083Z,55.92
2018-07-20T18:16:02.656Z,56.07
2018-07-20T18:18:31.976Z,55.97
2018-07-20T18:21:01.615Z,56.27
2018-07-20T18:23:31.135Z,56.75
2018-07-20T18:26:00.485Z,56.61
2018-07-20T18:28:29.876Z,56.03
2018-07-20T18:30:59.427Z,56.00
2018-07-20T18:33:28.745Z,55.76
2018-07-20T18:35:58.384Z,55.67
2018-07-20T18:38:28.054Z,55.24
2018-07-20T18:40:57.212Z,55.14
2018-07-20T18:43:26.719Z,54.78
2018-07-20T18:45:56.427Z,55.34
2018-07-20T18:48:25.872Z,55.69
2018-07-20T18:50:55.675Z,55.39
2018-07-20T18:53:25.455Z,56.00
2018-07-20T18:55:54.898Z,55.77
2018-07-20T18:58:24.589Z,56.16
2018-07-20T19:00:53.940Z,55.63
2018-07-20T19:03:23.518Z,55.25
2018-07-20T19:05:53.189Z,55.87
2018-07-20T19:08:22.858Z,56.08
2018-07-20T19:10:52.315Z,56.63
2018-07-20T19:13:21.766Z,56.35
2018-07-20T19:15:51.513Z,56.66
2018-07-20T19:18:20.742Z,57.24
2018-07-20T19:20:50.052Z,57.41
2018-07-20T19:23:19.843Z,57.84
2018-07-20T19:25:48.992Z,57.81
2018-07-20T19:28:18.561Z,58.18
2018-07-20T19:30:48.460Z,57.82
2018-07-20T19:33:17.991Z,58.44
2018-07-20T19:35:47.626Z,58.50
2018-07-20T19:38:17.191Z,59.61
2018-07-20T19:40:46.436Z,59.21
2018-07-20T19:43:16.252Z,59.02
2018-07-20T19:45:45.895Z,59.05
2018-07-20T19:48:15.653Z,59.59
2018-07-20T19:50:45.003Z,59.89
2018-07-20T19:53:14.656Z,59.55
2018-07-20T19:55:44.339Z,59.44
2018-07-20T19:58:13.807Z,60.20
2018-07-20T20:00:43.406Z,59.70
2018-07-20T20:03:12.945Z,59.44
2018-07-20T20:05:42.501Z,59.76
2018-07-20T20:08:12.091Z,59.80
2018-07-20T20:10:41.828Z,59.61
2018-07-20T20:13:11.204Z,59.60
2018-07-20T20:15:40.779Z,60.04
2018-07-20T20:18:10.373Z,60.12
2018-07-20T20:20:39.837Z,60.27
2018-07-20T20:23:09.369Z,59.91
2018-07-20T20:25:38.993Z,59.73
2018-07-20T20:28:08.504Z,59.74
2018-07-20T20:30:38.501Z,60.09
2018-07-20T20:33:08.005Z,60.17
2018-07-20T20:35:37.571Z,60.37
2018-07-20T20:38:07.276Z,60.16
2018-07-20T20:40:36.853Z,59.80
2018-07-20T20:43:06.229Z,59.68
2018-07-20T20:45:35.888Z,60.15
2018-07-20T20:48:06.234Z,60.46
2018-07-20T20:50:35.668Z,59.99
2018-07-20T20:53:05.184Z,60.12
2018-07-20T20:55:34.398Z,59.99
2018-07-20T20:58:03.656Z,59.45
2018-07-20T21:00:33.351Z,59.23
2018-07-20T21:03:03.683Z,59.04
2018-07-20T21:05:33.818Z,59.33
2018-07-20T21:08:04.320Z,58.83
2018-07-20T21:10:33.689Z,58.74
2018-07-20T21:13:03.427Z,59.30
2018-07-20T21:15:33.013Z,58.74
2018-07-20T21:18:02.738Z,59.29
2018-07-20T21:20:32.566Z,59.15
2018-07-20T21:23:02.271Z,59.25
2018-07-20T21:25:31.829Z,59.32
2018-07-20T21:28:01.746Z,58.54
2018-07-20T21:30:31.181Z,58.79
2018-07-20T21:33:00.573Z,58.34
2018-07-20T21:35:30.484Z,59.03
2018-07-20T21:37:59.873Z,58.92
2018-07-20T21:40:29.181Z,58.98
2018-07-20T21:42:59.095Z,58.55
2018-07-20T21:45:28.494Z,58.88
2018-07-20T21:47:57.734Z,58.75
2018-07-20T21:50:27.575Z,59.09
2018-07-20T21:52:57.062Z,59.32
2018-07-20T21:55:26.380Z,58.89
2018-07-20T21:57:56.189Z,58.67
2018-07-20T22:00:25.534Z,59.43
2018-07-20T22:02:55.154Z,59.13
2018-07-20T22:05:25.056Z,59.53
2018-07-20T22:07:54.525Z,58.93
2018-07-20T22:10:24.315Z,59.08
2018-07-20T22:12:54.187Z,58.58
2018-07-20T22:15:23.852Z,58.77
2018-07-20T22:17:53.727Z,58.66
2018-07-20T22:20:23.468Z,58.75
2018-07-20T22:22:52.865Z,58.65
2018-07-20T22:25:22.612Z,58.12
2018-07-20T22:27:52.246Z,57.98
2018-07-20T22:30:21.859Z,58.08
2018-07-20T22:32:51.423Z,58.52
2018-07-20T22:35:21.030Z,58.02
2018-07-20T22:37:50.440Z,58.02
2018-07-20T22:40:19.951Z,57.81
2018-07-20T22:42:49.678Z,58.50
2018-07-20T22:45:19.097Z,58.53
2018-07-20T22:47:48.552Z,58.75
2018-07-20T22:50:18.066Z,59.15
2018-07-20T22:52:47.363Z,59.20
2018-07-20T22:55:17.157Z,59.20
2018-07-20T22:57:46.701Z,59.81
2018-07-20T23:00:16.014Z,60.04
2018-07-20T23:02:45.636Z,60.68
2018-07-20T23:05:15.194Z,60.84
2018-07-20T23:07:44.369Z,60.98
2018-07-20T23:10:14.145Z,61.49
2018-07-20T23:12:43.716Z,61.51
2018-07-20T23:15:13.179Z,61.85
2018-07-20T23:17:42.707Z,62.00
2018-07-20T23:20:12.406Z,62.53
2018-07-20T23:22:42.389Z,63.49
2018-07-20T23:25:11.941Z,63.09
2018-07-20T23:27:41.631Z,64.04
2018-07-20T23:30:11.054Z,63.80
2018-07-20T23:32:40.475Z,63.38
2018-07-20T23:35:10.266Z,64.27
2018-07-20T23:37:39.742Z,64.17
2018-07-20T23:40:08.994Z,64.97
2018-07-20T23:42:38.598Z,65.16
2018-07-20T23:45:08.033Z,65.64
2018-07-20T23:47:37.431Z,65.07
2018-07-20T23:50:07.045Z,65.87
2018-07-20T23:52:36.333Z,65.79
2018-07-20T23:55:05.861Z,66.09
2018-07-20T23:57:35.614Z,65.88
